Погода Ортигуеирана неделю

Парана, Бразилия

22 - 28 июля
  • 22июля
    Сегодня
    +11°
    +25°
    Ясно и безоблачно
    ВремяПогодаТемператураВлажностьДавлениеВетер, м/сВероятность осадков
    00:00Ясно и безоблачно+16°C84 %717 мм1.6 м/с5 %
    03:00Ясно и безоблачно+15°C86 %717 мм1.5 м/с5 %
    06:00Ясно и безоблачно+13°C90 %717 мм1.5 м/с5 %
    09:00Ясно и безоблачно+17°C77 %718 мм1.4 м/с5 %
    12:00Ясно и безоблачно+23°C51 %719 мм0.4 м/с5 %
    15:00Ясно и безоблачно+24°C43 %718 мм1.8 м/с5 %
    18:00Ясно и безоблачно+21°C60 %717 мм1.4 м/с5 %
    21:00Ясно и безоблачно+19°C74 %718 мм2.3 м/с5 %
  • 23июля
    Вторник
    +12°
    +25°
    Небольшая облачность
    ВремяПогодаТемператураВлажностьДавлениеВетер, м/сВероятность осадков
    00:00Ясно и безоблачно+16°C76 %718 мм2.4 м/с5 %
    03:00Ясно и безоблачно+14°C85 %717 мм2.6 м/с5 %
    06:00Ясно и безоблачно+13°C90 %717 мм2.4 м/с5 %
    09:00Ясно и безоблачно+16°C78 %719 мм1.9 м/с5 %
    12:00Практически безоблачно+21°C48 %719 мм2.4 м/с5 %
    15:00Небольшая облачность+24°C37 %718 мм2.6 м/с5 %
    18:00Небольшая облачность+21°C60 %717 мм2.3 м/с5 %
    21:00Небольшая облачность+17°C58 %717 мм3.0 м/с5 %
  • 24июля
    Среда
    +14°
    +25°
    Небольшая облачность
    ВремяПогодаТемператураВлажностьДавлениеВетер, м/сВероятность осадков
    00:00Облачно с прояснениями+15°C71 %718 мм2.9 м/с5 %
    03:00Практически безоблачно+13°C68 %716 мм3.2 м/с5 %
    06:00Ясно и безоблачно+13°C58 %717 мм3.3 м/с5 %
    09:00Облачно с прояснениями+15°C60 %719 мм3.1 м/с5 %
    12:00Облачно с прояснениями+22°C44 %719 мм3.1 м/с5 %
    15:00Небольшая облачность+24°C40 %717 мм2.9 м/с5 %
    18:00Небольшая облачность+21°C56 %717 мм2.9 м/с5 %
    21:00Небольшая облачность+19°C65 %717 мм2.8 м/с5 %
  • 25июля
    Четверг
    +15°
    +27°
    Ясно и безоблачно
    ВремяПогодаТемператураВлажностьДавлениеВетер, м/сВероятность осадков
    00:00Практически безоблачно+18°C69 %717 мм2.4 м/с5 %
    03:00Ясно и безоблачно+16°C71 %716 мм2.8 м/с5 %
    06:00Ясно и безоблачно+15°C74 %716 мм2.8 м/с5 %
    09:00Ясно и безоблачно+18°C67 %717 мм2.3 м/с5 %
    12:00Ясно и безоблачно+24°C45 %717 мм2.4 м/с5 %
    15:00Ясно и безоблачно+27°C36 %715 мм1.7 м/с5 %
    18:00Ясно и безоблачно+24°C67 %715 мм0.8 м/с5 %
    21:00Ясно и безоблачно+19°C71 %715 мм1.1 м/с5 %
  • 26июля
    Пятница
    +16°
    +27°
    Облачно с прояснениями
    ВремяПогодаТемператураВлажностьДавлениеВетер, м/сВероятность осадков
    00:00Ясно и безоблачно+18°C74 %715 мм1.8 м/с5 %
    03:00Практически безоблачно+16°C78 %714 мм1.9 м/с5 %
    06:00Небольшая облачность+16°C78 %714 мм2.3 м/с5 %
    09:00Облачно с прояснениями+18°C68 %716 мм2.1 м/с5 %
    12:00Облачно с прояснениями+24°C45 %717 мм2.1 м/с5 %
    15:00Облачно с прояснениями+26°C43 %715 мм1.4 м/с5 %
    18:00Облачно с прояснениями+24°C68 %715 мм2.0 м/с5 %
    21:00Облачно с прояснениями+21°C57 %715 мм2.5 м/с5 %
Мы используем cookies
Соглашаюсь